createdAt,value
2023-03-16T00:00:56.670Z,20.10
2023-03-16T00:03:24.712Z,20.20
2023-03-16T00:05:55.767Z,18.23
2023-03-16T00:08:24.095Z,19.85
2023-03-16T00:10:54.030Z,19.52
2023-03-16T00:13:24.709Z,20.67
2023-03-16T00:15:53.694Z,21.92
2023-03-16T00:18:22.653Z,21.17
2023-03-16T00:20:56.748Z,21.55
2023-03-16T00:23:27.174Z,22.42
2023-03-16T00:25:55.736Z,21.05
2023-03-16T00:28:23.949Z,24.52
2023-03-16T00:30:52.277Z,24.05
2023-03-16T00:33:20.232Z,23.33
2023-03-16T00:35:50.152Z,21.50
2023-03-16T00:38:20.544Z,21.00
2023-03-16T00:40:51.223Z,23.83
2023-03-16T00:43:19.137Z,20.98
2023-03-16T00:45:47.458Z,19.45
2023-03-16T00:48:16.466Z,17.45
2023-03-16T00:50:44.390Z,17.90
2023-03-16T00:53:12.228Z,19.30
2023-03-16T00:55:41.560Z,18.42
2023-03-16T00:58:09.638Z,19.05
2023-03-16T01:00:37.639Z,19.67
2023-03-16T01:03:05.601Z,16.52
2023-03-16T01:05:33.696Z,15.30
2023-03-16T01:08:02.771Z,14.30
2023-03-16T01:10:30.762Z,14.95
2023-03-16T01:12:59.980Z,15.57
2023-03-16T01:15:28.187Z,16.38
2023-03-16T01:17:56.130Z,17.63
2023-03-16T01:20:24.581Z,20.27
2023-03-16T01:22:52.536Z,24.17
2023-03-16T01:25:21.192Z,26.33
2023-03-16T01:27:49.043Z,23.75
2023-03-16T01:30:18.467Z,24.13
2023-03-16T01:32:46.472Z,24.80
2023-03-16T01:35:14.761Z,23.90
2023-03-16T01:37:42.772Z,24.30
2023-03-16T01:40:12.678Z,23.92
2023-03-16T01:42:47.368Z,25.80
2023-03-16T01:45:53.779Z,26.00
2023-03-16T01:48:25.405Z,23.42
2023-03-16T01:50:54.249Z,26.15
2023-03-16T01:53:24.131Z,24.83
2023-03-16T01:55:55.181Z,23.95
2023-03-16T01:58:23.785Z,25.88
2023-03-16T02:00:51.697Z,23.85
2023-03-16T02:03:21.881Z,24.38
2023-03-16T02:05:57.319Z,22.85
2023-03-16T02:08:26.281Z,21.85
2023-03-16T02:10:56.500Z,19.48
2023-03-16T02:13:25.858Z,21.63
2023-03-16T02:15:54.230Z,19.90
2023-03-16T02:18:23.218Z,18.10
2023-03-16T02:20:58.205Z,17.83
2023-03-16T02:23:26.774Z,17.50
2023-03-16T02:26:02.545Z,18.65
2023-03-16T02:28:38.207Z,18.40
2023-03-16T02:31:08.292Z,16.40
2023-03-16T02:33:36.682Z,15.60
2023-03-16T02:36:04.742Z,15.68
2023-03-16T02:38:32.935Z,16.25
2023-03-16T02:41:06.940Z,15.75
2023-03-16T02:43:37.140Z,16.42
2023-03-16T02:46:07.010Z,16.75
2023-03-16T02:48:42.681Z,16.48
2023-03-16T02:51:11.463Z,16.45
2023-03-16T02:53:39.376Z,15.13
2023-03-16T02:56:07.764Z,15.88
2023-03-16T02:58:35.837Z,16.33
2023-03-16T03:01:03.877Z,17.67
2023-03-16T03:03:34.566Z,17.08
2023-03-16T03:06:02.646Z,15.77
2023-03-16T03:08:32.763Z,14.85
2023-03-16T03:11:00.747Z,15.93
2023-03-16T03:13:28.807Z,16.95
2023-03-16T03:15:56.691Z,16.02
2023-03-16T03:18:25.411Z,15.82
2023-03-16T03:20:54.954Z,16.38
2023-03-16T03:23:23.620Z,15.73
2023-03-16T03:25:51.462Z,16.35
2023-03-16T03:28:19.317Z,14.43
2023-03-16T03:30:47.167Z,15.75
2023-03-16T03:33:15.007Z,14.80
2023-03-16T03:35:43.012Z,15.15
2023-03-16T03:38:12.226Z,13.90
2023-03-16T03:40:40.176Z,14.88
2023-03-16T03:43:08.012Z,15.25
2023-03-16T03:45:35.888Z,15.88
2023-03-16T03:48:03.745Z,16.70
2023-03-16T03:50:31.581Z,17.33
2023-03-16T03:52:59.455Z,15.25
2023-03-16T03:55:28.867Z,16.85
2023-03-16T03:57:56.716Z,15.55
2023-03-16T04:00:24.641Z,15.25
2023-03-16T04:02:52.535Z,17.98
2023-03-16T04:05:20.461Z,16.85
2023-03-16T04:07:48.343Z,15.75
2023-03-16T04:10:16.348Z,17.83
2023-03-16T04:12:45.544Z,16.38
2023-03-16T04:15:13.514Z,17.45
2023-03-16T04:17:41.375Z,16.95
2023-03-16T04:20:15.207Z,15.52
2023-03-16T04:22:43.575Z,16.70
2023-03-16T04:25:12.299Z,17.33
2023-03-16T04:27:40.530Z,17.35
2023-03-16T04:30:13.862Z,18.25
2023-03-16T04:32:42.249Z,17.15
2023-03-16T04:35:10.846Z,17.73
2023-03-16T04:37:38.775Z,18.75
2023-03-16T04:40:11.814Z,19.50
2023-03-16T04:42:39.933Z,19.50
2023-03-16T04:45:10.288Z,18.65
2023-03-16T04:47:38.173Z,18.33
2023-03-16T04:50:06.947Z,17.50
2023-03-16T04:52:35.012Z,17.85
2023-03-16T04:55:02.956Z,18.63
2023-03-16T04:57:30.889Z,20.35
2023-03-16T04:59:58.714Z,16.92
2023-03-16T05:02:28.084Z,18.38
2023-03-16T05:04:56.111Z,18.38
2023-03-16T05:07:24.515Z,16.85
2023-03-16T05:09:52.367Z,16.40
2023-03-16T05:12:20.377Z,17.00
2023-03-16T05:14:48.214Z,17.83
2023-03-16T05:17:16.087Z,15.82
2023-03-16T05:19:45.435Z,17.80
2023-03-16T05:22:13.299Z,17.77
2023-03-16T05:24:41.146Z,16.98
2023-03-16T05:27:09.178Z,18.10
2023-03-16T05:29:37.045Z,15.52
2023-03-16T05:32:06.384Z,17.05
2023-03-16T05:34:37.226Z,16.15
2023-03-16T05:37:06.490Z,16.58
2023-03-16T05:39:34.452Z,15.45
2023-03-16T05:42:02.652Z,16.88
2023-03-16T05:44:30.673Z,16.42
2023-03-16T05:46:58.720Z,17.52
2023-03-16T05:49:26.663Z,16.88
2023-03-16T05:51:54.545Z,15.60
2023-03-16T05:54:24.151Z,15.77
2023-03-16T05:56:51.982Z,16.75
2023-03-16T05:59:19.844Z,17.30
2023-03-16T06:01:49.408Z,16.45
2023-03-16T06:04:17.430Z,16.05
2023-03-16T06:06:45.298Z,14.90
2023-03-16T06:09:13.084Z,15.65
2023-03-16T06:11:42.248Z,18.23
2023-03-16T06:14:10.054Z,17.27
2023-03-16T06:16:38.029Z,15.32
2023-03-16T06:19:05.995Z,15.90
2023-03-16T06:21:33.912Z,15.38
2023-03-16T06:24:02.405Z,17.77
2023-03-16T06:26:30.248Z,17.02
2023-03-16T06:28:59.722Z,14.40
2023-03-16T06:31:27.771Z,15.15
2023-03-16T06:33:55.669Z,16.38
2023-03-16T06:36:23.595Z,16.60
2023-03-16T06:38:51.618Z,14.98
2023-03-16T06:41:19.452Z,16.65
2023-03-16T06:43:47.337Z,14.13
2023-03-16T06:46:16.622Z,14.70
2023-03-16T06:48:44.559Z,14.82
2023-03-16T06:51:12.385Z,15.02
2023-03-16T06:53:41.564Z,15.00
2023-03-16T06:56:09.503Z,12.32
2023-03-16T06:58:37.365Z,12.80
2023-03-16T07:01:05.892Z,13.35
2023-03-16T07:03:35.206Z,13.65
2023-03-16T07:06:03.143Z,13.20
2023-03-16T07:08:31.215Z,11.73
2023-03-16T07:10:59.211Z,12.98
2023-03-16T07:13:27.104Z,12.65
2023-03-16T07:15:55.084Z,12.05
2023-03-16T07:18:22.997Z,12.30
2023-03-16T07:20:53.846Z,10.95
2023-03-16T07:23:21.861Z,10.55
2023-03-16T07:25:49.750Z,10.32
2023-03-16T07:28:17.633Z,11.38
2023-03-16T07:31:02.480Z,10.35
2023-03-16T07:33:32.179Z,10.25
2023-03-16T07:36:04.233Z,10.38
2023-03-16T07:38:32.663Z,9.65
2023-03-16T07:41:00.931Z,8.90
2023-03-16T07:43:29.305Z,9.95
2023-03-16T07:45:57.335Z,10.73
2023-03-16T07:48:25.985Z,9.48
2023-03-16T07:50:54.243Z,7.95
2023-03-16T07:53:23.625Z,8.82
2023-03-16T07:55:51.478Z,7.88
2023-03-16T07:58:19.351Z,8.32
2023-03-16T08:00:47.290Z,8.52
2023-03-16T08:03:15.295Z,7.80
2023-03-16T08:05:43.194Z,7.47
2023-03-16T08:08:11.135Z,7.03
2023-03-16T08:10:40.379Z,7.35
2023-03-16T08:13:08.623Z,6.93
2023-03-16T08:15:36.545Z,7.20
2023-03-16T08:18:04.665Z,6.57
2023-03-16T08:20:32.648Z,7.22
2023-03-16T08:23:00.635Z,6.93
2023-03-16T08:25:28.546Z,5.80
2023-03-16T08:27:58.110Z,5.90
2023-03-16T08:30:26.798Z,6.07
2023-03-16T08:32:55.004Z,6.18
2023-03-16T08:35:22.903Z,6.35
2023-03-16T08:37:50.876Z,6.40
2023-03-16T08:40:21.416Z,4.97
2023-03-16T08:42:50.175Z,5.35
2023-03-16T08:45:19.974Z,5.53
2023-03-16T08:47:47.979Z,5.28
2023-03-16T08:50:16.234Z,5.47
2023-03-16T08:52:44.151Z,6.13
2023-03-16T08:55:13.243Z,5.80
2023-03-16T08:57:41.123Z,4.95
2023-03-16T09:00:13.328Z,4.25
2023-03-16T09:02:43.084Z,4.18
2023-03-16T09:05:12.602Z,4.45
2023-03-16T09:07:40.978Z,4.28
2023-03-16T09:10:13.360Z,4.28
2023-03-16T09:12:41.348Z,4.38
2023-03-16T09:15:12.093Z,4.22
2023-03-16T09:17:41.646Z,3.97
2023-03-16T09:20:22.227Z,3.85
2023-03-16T09:22:50.741Z,4.15
2023-03-16T09:25:19.871Z,4.10
2023-03-16T09:27:47.747Z,3.17
2023-03-16T09:30:16.714Z,4.22
2023-03-16T09:32:44.912Z,3.20
2023-03-16T09:35:14.765Z,3.17
2023-03-16T09:37:45.303Z,3.50
2023-03-16T09:40:24.698Z,3.28
2023-03-16T09:43:11.193Z,3.88
2023-03-16T09:45:44.894Z,3.05
2023-03-16T09:48:13.937Z,3.97
2023-03-16T09:50:49.271Z,3.97
2023-03-16T09:53:40.398Z,3.50
2023-03-16T09:56:12.414Z,3.70
2023-03-16T09:58:40.729Z,3.58
2023-03-16T10:01:16.807Z,3.55
2023-03-16T10:04:00.731Z,3.53
2023-03-16T10:06:31.151Z,3.03
2023-03-16T10:09:10.390Z,3.45
2023-03-16T10:11:41.174Z,2.95
2023-03-16T10:14:17.690Z,2.97
2023-03-16T10:16:51.365Z,2.63
2023-03-16T10:19:23.298Z,2.90
2023-03-16T10:21:55.857Z,3.00
2023-03-16T10:24:35.727Z,2.83
2023-03-16T10:27:06.437Z,2.60
2023-03-16T10:29:38.616Z,2.53
2023-03-16T10:32:16.406Z,2.67
2023-03-16T10:34:49.727Z,2.63
2023-03-16T10:37:19.226Z,2.20
2023-03-16T10:39:49.649Z,2.72
2023-03-16T10:42:20.037Z,2.20
2023-03-16T10:44:48.303Z,2.33
2023-03-16T10:47:21.135Z,1.98
2023-03-16T10:49:51.240Z,2.35
2023-03-16T10:52:26.014Z,2.42
2023-03-16T10:54:59.122Z,1.80
2023-03-16T10:57:28.594Z,1.77
2023-03-16T11:00:00.559Z,1.83
2023-03-16T11:02:34.119Z,1.80
2023-03-16T11:05:13.951Z,2.40
2023-03-16T11:07:49.786Z,2.50
2023-03-16T11:10:30.411Z,2.05
2023-03-16T11:13:03.997Z,2.08
2023-03-16T11:15:39.718Z,1.80
2023-03-16T11:18:10.631Z,2.53
2023-03-16T11:20:38.922Z,2.10
2023-03-16T11:23:16.321Z,1.90
2023-03-16T11:25:50.032Z,1.98
2023-03-16T11:28:27.872Z,2.17
2023-03-16T11:31:06.338Z,1.75
2023-03-16T11:33:34.913Z,1.88
2023-03-16T11:36:18.566Z,2.35
2023-03-16T11:38:56.751Z,2.13
2023-03-16T11:41:34.789Z,2.00
2023-03-16T11:44:13.253Z,2.30
2023-03-16T11:46:50.160Z,2.00
2023-03-16T11:49:44.483Z,2.60
2023-03-16T11:52:23.400Z,2.25
2023-03-16T11:55:02.500Z,2.20
2023-03-16T11:57:40.997Z,2.40
2023-03-16T12:00:21.245Z,2.50
2023-03-16T12:03:03.337Z,2.50
2023-03-16T12:05:43.850Z,2.05
2023-03-16T12:08:26.030Z,1.92
2023-03-16T12:11:00.648Z,1.80
2023-03-16T12:13:54.637Z,2.15
2023-03-16T12:16:33.215Z,1.90
2023-03-16T12:19:12.168Z,1.98
2023-03-16T12:21:44.560Z,2.30
2023-03-16T12:24:18.139Z,1.85
2023-03-16T12:26:49.682Z,2.10
2023-03-16T12:29:28.906Z,2.13
2023-03-16T12:32:04.623Z,2.00
2023-03-16T12:34:39.397Z,1.95
2023-03-16T12:37:23.474Z,2.38
2023-03-16T12:40:10.666Z,2.00
2023-03-16T12:42:57.445Z,2.00
2023-03-16T12:45:41.123Z,1.80
2023-03-16T12:48:20.132Z,2.15
2023-03-16T12:50:51.265Z,2.42
2023-03-16T12:53:30.713Z,1.80
2023-03-16T12:55:58.620Z,1.80
2023-03-16T12:58:28.468Z,1.92
2023-03-16T13:00:59.328Z,1.50
2023-03-16T13:03:29.698Z,1.80
2023-03-16T13:06:00.821Z,1.88
2023-03-16T13:08:30.576Z,1.85
2023-03-16T13:11:03.250Z,1.80
2023-03-16T13:13:34.123Z,1.48
2023-03-16T13:16:09.513Z,1.70
2023-03-16T13:18:41.786Z,1.45
2023-03-16T13:21:21.484Z,1.33
2023-03-16T13:23:56.340Z,1.60
2023-03-16T13:26:39.032Z,1.50
2023-03-16T13:29:22.060Z,1.58
2023-03-16T13:31:51.178Z,1.75
2023-03-16T13:34:22.616Z,1.50
2023-03-16T13:36:56.836Z,1.63
2023-03-16T13:39:28.260Z,1.67
2023-03-16T13:41:59.521Z,1.98
2023-03-16T13:44:30.070Z,1.77
2023-03-16T13:46:58.096Z,1.58
2023-03-16T13:49:25.994Z,1.67
2023-03-16T13:51:54.031Z,1.60
2023-03-16T13:54:24.967Z,1.52
2023-03-16T13:56:54.071Z,1.92
2023-03-16T13:59:22.846Z,1.95
2023-03-16T14:01:59.551Z,1.60
2023-03-16T14:04:29.238Z,1.85
2023-03-16T14:06:59.090Z,1.60
2023-03-16T14:09:30.639Z,1.67
2023-03-16T14:11:58.974Z,1.85
2023-03-16T14:14:30.116Z,1.77
2023-03-16T14:17:12.582Z,1.85
2023-03-16T14:19:46.212Z,2.22
2023-03-16T14:22:16.389Z,1.75
2023-03-16T14:24:46.837Z,1.90
2023-03-16T14:27:24.321Z,1.67
2023-03-16T14:29:57.626Z,1.90
2023-03-16T14:32:29.504Z,1.90
2023-03-16T14:35:12.950Z,1.85
2023-03-16T14:37:42.127Z,2.33
2023-03-16T14:40:24.255Z,2.03
2023-03-16T14:42:52.917Z,1.70
2023-03-16T14:45:22.653Z,2.13
2023-03-16T14:47:53.698Z,1.48
2023-03-16T14:50:25.400Z,1.60
2023-03-16T14:52:56.444Z,1.77
2023-03-16T14:55:25.692Z,1.48
2023-03-16T14:57:53.912Z,1.63
2023-03-16T15:00:23.181Z,1.98
2023-03-16T15:03:01.570Z,1.50
2023-03-16T15:05:36.334Z,1.67
2023-03-16T15:08:05.896Z,1.80
2023-03-16T15:10:35.957Z,1.60
2023-03-16T15:13:13.293Z,1.50
2023-03-16T15:15:42.903Z,1.38
2023-03-16T15:18:12.204Z,1.73
2023-03-16T15:20:43.388Z,1.40
2023-03-16T15:23:15.771Z,1.50
2023-03-16T15:25:44.727Z,1.75
2023-03-16T15:28:15.734Z,1.58
2023-03-16T15:30:45.132Z,1.67
2023-03-16T15:33:14.626Z,1.67
2023-03-16T15:35:43.380Z,1.45
2023-03-16T15:38:15.841Z,1.92
2023-03-16T15:40:45.555Z,1.60
2023-03-16T15:43:14.343Z,1.88
2023-03-16T15:45:43.443Z,2.00
2023-03-16T15:48:11.993Z,1.98
2023-03-16T15:50:45.001Z,1.88
2023-03-16T15:53:29.885Z,2.25
2023-03-16T15:56:03.036Z,1.80
2023-03-16T15:58:32.541Z,1.95
2023-03-16T16:01:03.547Z,1.80
2023-03-16T16:03:31.546Z,1.70
2023-03-16T16:06:00.986Z,1.92
2023-03-16T16:08:28.891Z,1.75
2023-03-16T16:10:57.267Z,1.48
2023-03-16T16:13:43.054Z,2.08
2023-03-16T16:16:14.400Z,1.65
2023-03-16T16:18:42.872Z,2.30
2023-03-16T16:21:17.086Z,2.05
2023-03-16T16:23:45.071Z,2.35
2023-03-16T16:26:26.315Z,2.03
2023-03-16T16:28:58.397Z,2.08
2023-03-16T16:31:27.652Z,2.28
2023-03-16T16:33:56.164Z,1.95
2023-03-16T16:36:25.387Z,2.17
2023-03-16T16:38:56.898Z,2.28
2023-03-16T16:41:28.418Z,2.13
2023-03-16T16:43:57.900Z,2.35
2023-03-16T16:46:27.354Z,2.92
2023-03-16T16:49:00.011Z,2.17
2023-03-16T16:51:30.866Z,2.50
2023-03-16T16:54:00.704Z,2.20
2023-03-16T16:56:30.655Z,2.08
2023-03-16T16:58:59.617Z,2.33
2023-03-16T17:01:29.918Z,2.13
2023-03-16T17:03:57.962Z,2.65
2023-03-16T17:06:27.740Z,2.75
2023-03-16T17:08:56.913Z,2.47
2023-03-16T17:11:26.985Z,2.40
2023-03-16T17:13:56.917Z,2.50
2023-03-16T17:16:26.591Z,2.70
2023-03-16T17:18:55.339Z,2.53
2023-03-16T17:21:25.344Z,3.05
2023-03-16T17:23:53.680Z,3.30
2023-03-16T17:26:25.185Z,3.20
2023-03-16T17:28:57.832Z,3.65
2023-03-16T17:31:27.676Z,3.53
2023-03-16T17:33:56.946Z,3.35
2023-03-16T17:36:25.184Z,4.07
2023-03-16T17:38:53.645Z,4.13
2023-03-16T17:41:25.513Z,3.88
2023-03-16T17:43:55.430Z,4.13
2023-03-16T17:46:26.197Z,4.28
2023-03-16T17:48:55.992Z,4.13
2023-03-16T17:51:25.914Z,4.78
2023-03-16T17:53:55.711Z,4.55
2023-03-16T17:56:26.853Z,4.13
2023-03-16T17:58:57.323Z,4.50
2023-03-16T18:01:29.061Z,4.47
2023-03-16T18:03:57.896Z,4.15
2023-03-16T18:06:29.088Z,4.22
2023-03-16T18:08:57.841Z,4.57
2023-03-16T18:11:32.213Z,4.28
2023-03-16T18:14:00.117Z,4.50
2023-03-16T18:16:28.550Z,5.07
2023-03-16T18:18:59.901Z,4.38
2023-03-16T18:21:28.318Z,3.97
2023-03-16T18:23:56.898Z,4.57
2023-03-16T18:26:24.913Z,4.25
2023-03-16T18:28:55.479Z,4.35
2023-03-16T18:31:26.164Z,4.60
2023-03-16T18:33:56.335Z,4.47
2023-03-16T18:36:27.885Z,4.20
2023-03-16T18:38:57.540Z,4.18
2023-03-16T18:41:27.522Z,4.90
2023-03-16T18:43:58.927Z,4.38
2023-03-16T18:46:29.033Z,5.07
2023-03-16T18:48:59.173Z,5.15
2023-03-16T18:51:27.574Z,5.07
2023-03-16T18:53:55.514Z,5.03
2023-03-16T18:56:25.084Z,4.32
2023-03-16T18:58:53.588Z,4.32
2023-03-16T19:01:26.063Z,4.95
2023-03-16T19:03:55.233Z,4.63
2023-03-16T19:06:27.213Z,5.22
2023-03-16T19:08:55.832Z,4.55
2023-03-16T19:11:23.715Z,4.45
2023-03-16T19:13:54.722Z,4.35
2023-03-16T19:16:24.247Z,3.95
2023-03-16T19:18:52.130Z,4.95
2023-03-16T19:21:22.857Z,3.83
2023-03-16T19:23:56.418Z,4.95
2023-03-16T19:26:24.563Z,4.03
2023-03-16T19:28:52.640Z,4.13
2023-03-16T19:31:23.194Z,4.30
2023-03-16T19:33:52.966Z,3.55
2023-03-16T19:36:24.019Z,3.75
2023-03-16T19:38:52.536Z,3.95
2023-03-16T19:41:27.037Z,4.38
2023-03-16T19:43:57.647Z,3.53
2023-03-16T19:46:27.063Z,3.63
2023-03-16T19:48:56.712Z,4.15
2023-03-16T19:51:25.348Z,3.38
2023-03-16T19:53:53.801Z,5.07
2023-03-16T19:56:26.236Z,3.30
2023-03-16T19:58:55.578Z,4.28
2023-03-16T20:01:30.328Z,3.67
2023-03-16T20:04:04.030Z,3.38
2023-03-16T20:06:33.323Z,4.07
2023-03-16T20:09:01.448Z,3.20
2023-03-16T20:11:31.578Z,3.30
2023-03-16T20:14:01.196Z,3.58
2023-03-16T20:16:31.249Z,3.78
2023-03-16T20:19:02.908Z,3.95
2023-03-16T20:21:30.856Z,3.67
2023-03-16T20:23:58.707Z,3.72
2023-03-16T20:26:31.574Z,3.88
2023-03-16T20:29:00.403Z,3.45
2023-03-16T20:31:31.245Z,3.80
2023-03-16T20:34:00.483Z,3.40
2023-03-16T20:36:28.549Z,3.40
2023-03-16T20:38:56.390Z,4.25
2023-03-16T20:41:27.849Z,4.22
2023-03-16T20:43:57.330Z,4.72
2023-03-16T20:46:27.846Z,3.95
2023-03-16T20:48:56.198Z,4.10
2023-03-16T20:51:25.487Z,3.47
2023-03-16T20:53:53.331Z,3.92
2023-03-16T20:56:23.990Z,4.18
2023-03-16T20:58:55.877Z,4.60
2023-03-16T21:01:24.992Z,3.53
2023-03-16T21:03:55.229Z,4.35
2023-03-16T21:06:27.050Z,4.03
2023-03-16T21:08:56.835Z,3.92
2023-03-16T21:11:26.479Z,3.88
2023-03-16T21:13:55.005Z,4.07
2023-03-16T21:16:23.212Z,4.13
2023-03-16T21:18:51.205Z,3.80
2023-03-16T21:21:21.223Z,4.70
2023-03-16T21:23:50.520Z,4.10
2023-03-16T21:26:21.196Z,4.07
2023-03-16T21:28:55.663Z,3.78
2023-03-16T21:31:23.943Z,4.38
2023-03-16T21:33:53.746Z,4.43
2023-03-16T21:36:26.098Z,4.80
2023-03-16T21:38:56.379Z,3.78
2023-03-16T21:41:24.443Z,3.70
2023-03-16T21:43:52.574Z,3.83
2023-03-16T21:46:22.590Z,4.47
2023-03-16T21:48:53.165Z,4.07
2023-03-16T21:51:24.818Z,4.57
2023-03-16T21:53:53.453Z,4.38
2023-03-16T21:56:25.783Z,4.20
2023-03-16T21:58:54.985Z,4.55
2023-03-16T22:01:24.994Z,4.50
2023-03-16T22:03:54.817Z,4.32
2023-03-16T22:06:23.637Z,4.20
2023-03-16T22:08:52.291Z,4.82
2023-03-16T22:11:23.574Z,3.75
2023-03-16T22:13:54.030Z,4.63
2023-03-16T22:16:24.058Z,4.38
2023-03-16T22:18:55.460Z,5.50
2023-03-16T22:21:30.754Z,4.10
2023-03-16T22:23:59.516Z,4.38
2023-03-16T22:26:29.644Z,4.50
2023-03-16T22:28:59.629Z,4.53
2023-03-16T22:31:32.650Z,4.72
2023-03-16T22:34:01.964Z,4.85
2023-03-16T22:36:32.053Z,4.20
2023-03-16T22:39:02.591Z,4.03
2023-03-16T22:41:32.315Z,4.47
2023-03-16T22:44:01.620Z,4.40
2023-03-16T22:46:30.493Z,4.60
2023-03-16T22:48:59.644Z,4.63
2023-03-16T22:51:30.728Z,4.63
2023-03-16T22:54:01.686Z,4.82
2023-03-16T22:56:33.423Z,4.40
2023-03-16T22:59:03.719Z,4.88
2023-03-16T23:01:34.671Z,4.22
2023-03-16T23:04:03.333Z,4.80
2023-03-16T23:06:32.557Z,4.38
2023-03-16T23:09:00.626Z,5.15
2023-03-16T23:11:30.932Z,4.95
2023-03-16T23:14:00.647Z,4.75
2023-03-16T23:16:31.182Z,5.03
2023-03-16T23:18:59.391Z,4.80
2023-03-16T23:21:31.894Z,5.07
2023-03-16T23:24:03.918Z,5.22
2023-03-16T23:26:32.745Z,4.63
2023-03-16T23:29:03.180Z,5.45
2023-03-16T23:31:31.840Z,4.47
2023-03-16T23:33:59.921Z,5.50
2023-03-16T23:36:28.276Z,5.38
2023-03-16T23:38:56.621Z,5.45
2023-03-16T23:41:26.233Z,5.03
2023-03-16T23:43:55.388Z,5.35
2023-03-16T23:46:27.481Z,5.30
2023-03-16T23:49:01.598Z,4.97
2023-03-16T23:51:32.196Z,5.15
2023-03-16T23:54:01.087Z,5.00
2023-03-16T23:56:29.739Z,4.53
2023-03-16T23:58:58.902Z,4.03
